Time;durP1;ratioP1;P1;durP2;ratioP2;P2;SDS_P1;SDS_P2;PMS_P1;PMS_P2;Temp;Humidity;BMP_temperature;BMP_pressure;BME280_temperature;BME280_humidity;BME280_pressure;Samples;Min_cycle;Max_cycle;Signal;HPM_P1;HPM_P2
2022/04/16 00:03:49;;;;;;;7.28;3.30;;;;;;;7.12;56.87;101123.84;10298357;28;20112;-81
2022/04/16 00:08:50;;;;;;;5.57;3.38;;;;;;;6.66;57.28;101123.34;10314946;28;20089;-81
2022/04/16 00:13:52;;;;;;;4.45;2.75;;;;;;;6.52;58.03;101128.03;10315305;28;20058;-81
2022/04/16 00:18:56;;;;;;;6.18;2.90;;;;;;;6.67;57.37;101126.78;10298559;28;20145;-81
2022/04/16 00:23:59;;;;;;;4.60;3.10;;;;;;;6.71;57.48;101128.44;10316058;28;20794;-81
2022/04/16 00:29:01;;;;;;;5.70;3.17;;;;;;;6.85;57.38;101134.13;10314679;28;20042;-80
2022/04/16 00:34:02;;;;;;;5.38;3.03;;;;;;;6.81;57.31;101135.97;10298140;28;20475;-80
2022/04/16 00:39:04;;;;;;;4.82;3.40;;;;;;;6.80;57.66;101130.78;10315343;28;20046;-81
2022/04/16 00:44:06;;;;;;;5.57;3.03;;;;;;;6.77;57.56;101131.72;10315556;28;20094;-81
2022/04/16 00:49:08;;;;;;;4.72;3.22;;;;;;;6.75;57.72;101132.66;10314592;28;20482;-81
2022/04/16 00:54:10;;;;;;;5.00;3.10;;;;;;;6.74;57.79;101125.75;10315631;28;20109;-81
2022/04/16 00:59:12;;;;;;;4.70;3.17;;;;;;;6.63;57.98;101136.44;10315332;28;20053;-81
2022/04/16 01:04:13;;;;;;;4.10;3.10;;;;;;;6.56;57.99;101137.44;10316140;28;20152;-81
2022/04/16 01:09:16;;;;;;;5.47;3.42;;;;;;;6.59;58.31;101136.53;10313502;28;20129;-81
2022/04/16 01:14:19;;;;;;;4.03;2.78;;;;;;;6.63;58.28;101138.16;10298037;28;20089;-81
2022/04/16 01:19:22;;;;;;;4.40;3.00;;;;;;;6.64;58.11;101132.06;10313841;28;20050;-81
2022/04/16 01:24:23;;;;;;;6.53;3.10;;;;;;;6.66;58.00;101143.28;10314564;28;21482;-81
2022/04/16 01:29:26;;;;;;;4.72;3.20;;;;;;;6.62;57.94;101139.03;10295080;28;20108;-81
2022/04/16 01:34:29;;;;;;;4.22;2.70;;;;;;;6.67;58.07;101142.41;10296699;28;20145;-81
2022/04/16 01:39:33;;;;;;;5.05;3.03;;;;;;;6.73;58.12;101142.25;10313585;28;20042;-81
2022/04/16 01:44:35;;;;;;;6.57;3.28;;;;;;;6.73;58.19;101144.84;10311096;28;20054;-80
2022/04/16 01:49:37;;;;;;;5.38;3.10;;;;;;;6.74;58.14;101141.34;10314153;28;20676;-80
2022/04/16 01:54:39;;;;;;;4.65;2.80;;;;;;;6.73;58.29;101139.66;10310833;28;20116;-81
2022/04/16 01:59:41;;;;;;;4.40;3.00;;;;;;;6.67;58.41;101134.59;10313308;28;20082;-81
2022/04/16 02:04:43;;;;;;;4.60;3.22;;;;;;;6.59;58.46;101139.13;10316513;28;20058;-81
2022/04/16 02:09:45;;;;;;;4.88;3.70;;;;;;;6.65;58.54;101137.25;10317490;28;20097;-81
2022/04/16 02:14:47;;;;;;;15.85;8.60;;;;;;;6.70;58.50;101144.91;10316981;28;20109;-80
2022/04/16 02:19:49;;;;;;;10.27;6.28;;;;;;;6.80;58.41;101146.38;10301668;28;20567;-81
2022/04/16 02:24:51;;;;;;;13.48;8.05;;;;;;;6.89;58.21;101152.22;10317833;28;20116;-81
2022/04/16 02:29:53;;;;;;;7.97;5.65;;;;;;;6.93;58.24;101150.41;10318486;28;20650;-81
2022/04/16 02:35:00;;;;;;;8.02;4.07;;;;;;;6.98;58.22;101159.78;10317360;28;20086;-81
2022/04/16 02:40:04;;;;;;;5.15;3.33;;;;;;;6.92;58.33;101153.88;10317745;28;20104;-81
2022/04/16 02:50:28;;;;;;;5.47;3.42;;;;;;;6.90;58.36;101155.66;10317309;28;20054;-80
2022/04/16 02:55:30;;;;;;;5.63;3.05;;;;;;;6.93;58.46;101159.06;10315477;28;20133;-81
2022/04/16 03:01:06;;;;;;;3.90;2.90;;;;;;;6.89;58.83;101159.16;10317121;28;20094;-81
2022/04/16 03:06:08;;;;;;;3.65;2.85;;;;;;;6.95;58.41;101167.66;10312186;28;20155;-81
2022/04/16 03:11:10;;;;;;;3.72;2.83;;;;;;;6.96;58.55;101158.09;10287102;28;20117;-80
2022/04/16 03:21:33;;;;;;;5.70;3.03;;;;;;;6.95;58.55;101172.00;10270764;28;20497;-81
2022/04/16 03:26:34;;;;;;;4.30;2.97;;;;;;;6.91;58.66;101165.19;10271182;28;20074;-81
2022/04/16 03:31:36;;;;;;;5.65;3.00;;;;;;;6.77;58.67;101167.28;10269171;28;20093;-81
2022/04/16 03:42:47;;;;;;;4.13;2.70;;;;;;;6.83;59.21;101174.91;10269732;28;20481;-81
2022/04/16 03:47:51;;;;;;;5.70;3.30;;;;;;;6.84;58.87;101174.00;10268569;28;20054;-81
2022/04/16 03:52:54;;;;;;;4.35;2.97;;;;;;;6.72;59.17;101169.13;10270770;28;20125;-81
2022/04/16 04:03:17;;;;;;;3.78;2.78;;;;;;;6.62;59.41;101173.69;10269264;28;20086;-81
2022/04/16 04:08:20;;;;;;;7.07;3.00;;;;;;;6.51;59.35;101180.88;10275491;28;20125;-81
2022/04/16 04:13:23;;;;;;;4.82;3.10;;;;;;;6.46;59.57;101176.69;10308373;28;20085;-81
2022/04/16 04:18:26;;;;;;;4.28;3.00;;;;;;;6.42;59.74;101182.84;10308172;28;20069;-81
2022/04/16 04:23:28;;;;;;;6.25;3.40;;;;;;;6.52;59.53;101186.94;10308097;28;20054;-81
2022/04/16 04:28:30;;;;;;;4.45;3.08;;;;;;;6.56;59.49;101197.22;10313020;28;20054;-82
2022/04/16 04:33:32;;;;;;;4.20;3.13;;;;;;;6.67;59.23;101202.19;10314837;28;20586;-82
2022/04/16 04:38:34;;;;;;;5.35;3.25;;;;;;;6.65;59.52;101212.63;10316973;28;20109;-82
2022/04/16 04:43:36;;;;;;;5.63;3.00;;;;;;;6.73;59.45;101213.31;10316256;28;20491;-82
2022/04/16 04:48:37;;;;;;;4.65;3.08;;;;;;;6.87;59.26;101220.75;10316773;28;20124;-81
2022/04/16 04:53:39;;;;;;;4.45;2.78;;;;;;;6.89;59.39;101221.56;10315431;28;20416;-82
2022/04/16 04:58:41;;;;;;;4.63;3.17;;;;;;;6.90;59.17;101220.66;10316481;28;20050;-81
2022/04/16 05:03:43;;;;;;;4.72;3.00;;;;;;;6.94;59.12;101220.56;10313923;28;20058;-82
2022/04/16 05:08:45;;;;;;;4.30;3.35;;;;;;;6.93;59.32;101225.81;10297042;28;20077;-82
2022/04/16 05:13:47;;;;;;;4.55;3.35;;;;;;;6.98;59.19;101223.94;10314857;28;20109;-82
2022/04/16 05:18:49;;;;;;;6.15;3.67;;;;;;;7.11;58.93;101223.63;10314796;28;20046;-82
2022/04/16 05:23:50;;;;;;;4.90;3.45;;;;;;;7.16;58.73;101223.50;10297320;28;20520;-82
2022/04/16 05:28:52;;;;;;;4.57;3.05;;;;;;;7.23;58.58;101235.44;10313991;28;20121;-82
2022/04/16 05:39:15;;;;;;;4.63;3.00;;;;;;;7.55;58.24;101252.84;10314502;28;20133;-81
2022/04/16 05:44:17;;;;;;;4.30;3.10;;;;;;;7.69;58.17;101259.38;10313229;28;20098;-82
2022/04/16 05:49:24;;;;;;;3.88;2.95;;;;;;;7.97;57.58;101260.34;10313868;28;20069;-82
2022/04/16 05:54:35;;;;;;;4.60;3.25;;;;;;;8.19;57.29;101273.66;10314194;28;20054;-82
2022/04/16 05:59:37;;;;;;;5.25;3.60;;;;;;;8.22;57.17;101267.50;10314665;28;20681;-82
2022/04/16 06:04:39;;;;;;;5.68;3.53;;;;;;;8.43;56.94;101270.31;10313426;28;20528;-82
2022/04/16 06:09:40;;;;;;;4.38;3.40;;;;;;;8.66;56.45;101269.63;10314640;28;20062;-82
2022/04/16 06:14:42;;;;;;;4.88;3.80;;;;;;;8.90;56.01;101279.28;10314076;28;20101;-83
2022/04/16 06:19:44;;;;;;;6.40;4.00;;;;;;;9.29;55.60;101282.38;10313186;28;20050;-82
2022/04/16 06:24:51;;;;;;;7.50;5.38;;;;;;;9.64;54.78;101282.06;10312474;28;20755;-83
2022/04/16 06:29:53;;;;;;;5.07;4.05;;;;;;;9.54;55.32;101286.72;10309920;28;20153;-83
2022/04/16 06:34:54;;;;;;;7.13;4.50;;;;;;;9.42;55.54;101299.34;10307603;28;20459;-83
2022/04/16 06:39:56;;;;;;;6.53;4.50;;;;;;;9.39;55.86;101304.66;10310505;28;20097;-83
2022/04/16 06:44:58;;;;;;;7.10;5.57;;;;;;;9.64;55.95;101303.81;10309375;28;20112;-83
2022/04/16 06:50:00;;;;;;;11.88;7.50;;;;;;;9.95;55.38;101297.53;10308780;28;20571;-83
2022/04/16 06:55:03;;;;;;;10.55;7.90;;;;;;;10.13;55.30;101295.13;10309273;28;20477;-82
2022/04/16 07:00:06;;;;;;;12.05;8.73;;;;;;;10.36;54.43;101296.88;10308552;28;20046;-83
2022/04/16 07:05:09;;;;;;;13.82;7.40;;;;;;;10.56;53.86;101296.13;10309388;28;20069;-83
2022/04/16 07:10:11;;;;;;;12.82;7.28;;;;;;;10.67;53.58;101296.56;10311393;28;20058;-83
2022/04/16 07:15:13;;;;;;;10.25;5.95;;;;;;;11.17;53.01;101292.84;10309527;28;20050;-83
2022/04/16 07:20:18;;;;;;;8.23;6.10;;;;;;;11.49;50.44;101288.91;10295907;28;21013;-83
2022/04/16 07:25:21;;;;;;;7.95;5.60;;;;;;;12.23;49.96;101299.63;10291024;28;20459;-82
2022/04/16 07:30:23;;;;;;;7.28;5.50;;;;;;;12.91;48.88;101289.41;10304633;28;20039;-83
2022/04/16 07:35:26;;;;;;;8.45;5.82;;;;;;;13.33;47.21;101290.88;10305164;28;20318;-82
2022/04/16 07:40:28;;;;;;;7.03;5.55;;;;;;;13.28;46.98;101291.09;10305384;28;20093;-82
2022/04/16 07:45:33;;;;;;;7.10;5.22;;;;;;;14.03;45.44;101280.25;10300780;28;20058;-83
2022/04/16 07:50:34;;;;;;;6.35;4.82;;;;;;;13.43;44.94;101292.16;10311427;28;20096;-87
2022/04/16 07:55:36;;;;;;;5.35;4.22;;;;;;;12.67;44.58;101303.69;10310483;28;20050;-87
2022/04/16 08:00:38;;;;;;;6.55;4.82;;;;;;;12.44;44.13;101318.78;10307395;28;20046;-82
2022/04/16 08:05:40;;;;;;;7.28;4.93;;;;;;;12.01;44.41;101314.56;10316404;28;20069;-83
2022/04/16 08:10:42;;;;;;;5.60;4.32;;;;;;;12.33;43.90;101319.28;10317412;28;20432;-83
2022/04/16 08:15:43;;;;;;;6.05;3.90;;;;;;;12.25;43.34;101328.38;10318022;28;20065;-83
2022/04/16 08:20:45;;;;;;;5.10;3.30;;;;;;;12.15;42.79;101325.31;10315260;28;20387;-84
2022/04/16 08:25:47;;;;;;;4.00;2.50;;;;;;;11.65;42.04;101329.25;10318656;28;20162;-83
2022/04/16 08:30:50;;;;;;;3.55;2.30;;;;;;;11.72;42.09;101339.41;10317817;28;20049;-83
2022/04/16 08:35:51;;;;;;;4.25;2.85;;;;;;;11.52;43.14;101339.38;10318218;28;20086;-83
2022/04/16 08:40:55;;;;;;;6.28;3.92;;;;;;;11.86;42.82;101344.09;10315994;28;20078;-83
2022/04/16 08:45:57;;;;;;;5.78;3.42;;;;;;;12.45;43.20;101346.75;10317878;28;20082;-83
2022/04/16 08:50:59;;;;;;;6.13;4.13;;;;;;;12.64;42.22;101348.44;10316445;28;20500;-83
2022/04/16 08:56:01;;;;;;;6.20;4.70;;;;;;;12.63;41.45;101354.63;10318006;28;20058;-84
2022/04/16 09:01:03;;;;;;;6.32;4.90;;;;;;;12.36;42.27;101349.75;10297701;28;20129;-84
2022/04/16 09:06:06;;;;;;;7.32;5.53;;;;;;;12.78;42.02;101353.09;10314320;28;20515;-82
2022/04/16 09:11:11;;;;;;;7.22;5.15;;;;;;;12.98;41.09;101346.91;10314835;28;20066;-82
2022/04/16 09:16:13;;;;;;;7.20;5.32;;;;;;;13.50;40.27;101340.84;10310546;28;20147;-82
2022/04/16 09:21:17;;;;;;;7.63;4.78;;;;;;;14.04;39.28;101343.34;10310287;28;20054;-82
2022/04/16 09:26:34;;;;;;;6.55;4.07;;;;;;;13.94;35.95;101352.63;10308979;28;20070;-82
2022/04/16 09:31:40;;;;;;;5.97;4.05;;;;;;;14.29;36.60;101340.25;10312381;28;20081;-83
2022/04/16 09:36:45;;;;;;;6.30;4.15;;;;;;;14.46;36.94;101345.47;10313037;28;20109;-82
2022/04/16 09:41:51;;;;;;;6.03;3.75;;;;;;;14.27;36.39;101339.47;10312184;28;20089;-83
2022/04/16 09:46:55;;;;;;;6.60;4.03;;;;;;;14.22;36.56;101344.16;10307014;28;20054;-83
2022/04/16 09:52:00;;;;;;;5.63;3.63;;;;;;;14.55;35.50;101342.41;10306435;28;20627;-83
2022/04/16 09:57:02;;;;;;;6.00;3.70;;;;;;;14.23;33.87;101357.22;10309665;28;20152;-83
2022/04/16 10:02:04;;;;;;;7.03;3.58;;;;;;;14.32;35.13;101340.97;10311585;28;20606;-82
2022/04/16 10:07:06;;;;;;;5.97;3.97;;;;;;;14.36;35.01;101349.53;10310764;28;20050;-83
2022/04/16 10:17:29;;;;;;;6.35;4.10;;;;;;;14.30;32.23;101352.47;10312588;28;20879;-83
2022/04/16 10:22:31;;;;;;;6.57;3.53;;;;;;;14.25;33.91;101341.34;10313190;28;20603;-82
2022/04/16 10:27:42;;;;;;;6.07;3.53;;;;;;;14.60;32.65;101340.34;10313088;28;20078;-83
2022/04/16 10:32:50;;;;;;;6.10;3.30;;;;;;;15.08;33.04;101342.09;10309555;28;20480;-83
2022/04/16 10:37:59;;;;;;;5.88;3.53;;;;;;;14.90;32.60;101343.94;10309481;28;20057;-83
2022/04/16 10:43:01;;;;;;;6.70;3.28;;;;;;;14.90;32.73;101337.84;10307339;28;20066;-82
2022/04/16 10:48:03;;;;;;;6.13;3.50;;;;;;;14.05;31.91;101342.38;10308663;28;21151;-82
2022/04/16 10:53:05;;;;;;;5.68;3.17;;;;;;;14.28;33.35;101336.78;10309895;28;20124;-83
2022/04/16 10:58:08;;;;;;;5.20;3.60;;;;;;;13.85;34.02;101328.56;10307545;28;20496;-82
2022/04/16 11:03:12;;;;;;;8.32;4.07;;;;;;;14.22;35.23;101344.16;10308736;28;20137;-83
2022/04/16 11:08:17;;;;;;;6.53;3.60;;;;;;;14.06;34.92;101327.47;10309300;28;20531;-83
2022/04/16 11:13:19;;;;;;;5.30;3.50;;;;;;;14.03;35.06;101330.22;10311243;28;20152;-83
2022/04/16 11:18:21;;;;;;;5.32;2.95;;;;;;;14.17;35.19;101322.47;10310502;28;21172;-83
2022/04/16 11:23:27;;;;;;;5.60;3.00;;;;;;;14.28;32.30;101325.41;10309623;28;20825;-83
2022/04/16 11:39:20;;;;;;;4.65;2.10;;;;;;;13.92;28.98;101322.06;10314976;28;19925;-82
2022/04/16 11:45:00;;;;;;;5.75;2.30;;;;;;;13.94;29.92;101315.81;10316834;28;20090;-83
2022/04/16 11:50:06;;;;;;;3.75;1.98;;;;;;;13.92;27.65;101316.81;10255077;28;20079;-83
2022/04/16 11:55:13;;;;;;;2.92;1.40;;;;;;;13.99;27.95;101307.66;10294953;28;20054;-83
2022/04/16 12:00:18;;;;;;;3.67;1.42;;;;;;;14.12;26.59;101306.94;10314275;28;20101;-83
2022/04/16 12:05:28;;;;;;;5.32;1.38;;;;;;;13.94;22.10;101304.44;10316016;28;20473;-83
2022/04/16 12:10:30;;;;;;;2.30;1.30;;;;;;;14.04;25.24;101293.34;10315098;28;20066;-83
2022/04/16 12:15:32;;;;;;;3.28;1.40;;;;;;;13.94;24.02;101314.94;10313525;28;20058;-82
2022/04/16 12:20:43;;;;;;;2.92;1.17;;;;;;;14.06;21.94;101296.75;10315604;28;20081;-82
2022/04/16 12:25:46;;;;;;;2.20;1.20;;;;;;;14.08;24.40;101300.16;10312479;28;20073;-82
2022/04/16 12:30:51;;;;;;;3.72;1.10;;;;;;;14.33;23.12;101307.59;10314683;28;20462;-84
2022/04/16 12:35:57;;;;;;;2.38;1.30;;;;;;;14.36;23.64;101303.00;10314421;28;20633;-83
2022/04/16 12:41:10;;;;;;;1.80;1.20;;;;;;;14.00;21.89;101312.84;10316050;28;20042;-83
2022/04/16 12:46:14;;;;;;;3.63;1.40;;;;;;;14.02;22.71;101297.84;10317861;28;20409;-83
2022/04/16 12:51:16;;;;;;;3.15;1.33;;;;;;;14.18;21.91;101298.72;10314362;28;20050;-84
2022/04/16 12:56:18;;;;;;;2.20;1.10;;;;;;;13.98;20.86;101290.19;10313519;28;20542;-83
2022/04/16 13:01:20;;;;;;;2.22;1.02;;;;;;;14.16;21.14;101291.84;10313150;28;20105;-83
2022/04/16 13:06:22;;;;;;;2.20;1.13;;;;;;;14.10;20.00;101282.50;10310146;28;20520;-83
2022/04/16 13:11:24;;;;;;;1.63;1.10;;;;;;;14.26;20.27;101288.66;10311586;28;20583;-83
2022/04/16 13:16:27;;;;;;;2.80;1.20;;;;;;;14.66;21.90;101284.72;10314676;28;20058;-83
2022/04/16 13:21:32;;;;;;;2.03;0.98;;;;;;;14.79;21.25;101293.66;10313451;28;20058;-82
2022/04/16 13:26:34;;;;;;;2.45;1.20;;;;;;;14.86;20.71;101283.63;10310046;28;20054;-83
2022/04/16 13:31:36;;;;;;;2.05;1.10;;;;;;;14.94;19.54;101284.88;10307880;28;20433;-83
2022/04/16 13:36:39;;;;;;;4.75;1.23;;;;;;;14.88;20.02;101281.75;10305341;28;20050;-83
2022/04/16 13:41:47;;;;;;;1.40;0.98;;;;;;;15.08;20.42;101270.94;10307589;28;20109;-83
2022/04/16 13:46:49;;;;;;;2.65;1.20;;;;;;;14.93;19.44;101275.28;10312899;28;20058;-83
2022/04/16 13:51:52;;;;;;;2.00;1.20;;;;;;;14.96;22.04;101277.72;10312099;28;20621;-83
2022/04/16 13:56:54;;;;;;;1.67;1.00;;;;;;;14.98;20.55;101264.50;10310236;28;20570;-83
2022/04/16 14:01:56;;;;;;;3.30;1.20;;;;;;;15.01;20.50;101259.91;10310679;28;20054;-83
2022/04/16 14:06:58;;;;;;;3.00;1.10;;;;;;;15.08;19.95;101255.13;10310169;28;20085;-82
2022/04/16 14:12:01;;;;;;;2.55;1.20;;;;;;;15.13;21.90;101259.19;10309081;28;20058;-82
2022/04/16 14:17:03;;;;;;;2.67;1.08;;;;;;;14.79;19.32;101258.56;10311017;28;20050;-80
2022/04/16 14:22:05;;;;;;;3.95;1.30;;;;;;;14.76;19.44;101243.78;10308715;28;20145;-80
2022/04/16 14:27:07;;;;;;;5.18;1.13;;;;;;;14.72;18.49;101268.56;10310581;28;20117;-82
2022/04/16 14:32:09;;;;;;;2.80;0.98;;;;;;;14.73;19.80;101246.59;10310304;28;20077;-82
2022/04/16 14:37:11;;;;;;;2.95;1.20;;;;;;;14.87;21.05;101236.13;10292960;28;20123;-82
2022/04/16 14:42:13;;;;;;;2.20;1.10;;;;;;;15.25;22.28;101249.72;10309693;28;21041;-82
2022/04/16 14:47:15;;;;;;;2.00;1.10;;;;;;;14.83;20.88;101239.88;10310772;28;20554;-82
2022/04/16 14:52:18;;;;;;;2.70;1.23;;;;;;;14.92;20.80;101246.41;10308828;28;20086;-82
2022/04/16 14:57:19;;;;;;;2.42;1.30;;;;;;;14.92;20.69;101243.78;10309995;28;20086;-82
2022/04/16 15:02:21;;;;;;;2.22;1.10;;;;;;;15.14;20.62;101231.06;10306549;28;20607;-83
2022/04/16 15:07:25;;;;;;;2.50;1.20;;;;;;;14.77;21.00;101236.72;10310761;28;20054;-83
2022/04/16 15:12:28;;;;;;;2.67;1.20;;;;;;;14.99;19.72;101221.41;10300860;28;20140;-82
2022/04/16 15:17:31;;;;;;;2.97;1.10;;;;;;;15.10;20.13;101237.44;10307023;28;20492;-83
2022/04/16 15:22:34;;;;;;;2.63;1.20;;;;;;;14.82;19.88;101226.78;10302376;28;20152;-82
2022/04/16 15:27:36;;;;;;;1.95;1.10;;;;;;;14.95;20.55;101228.63;10299003;28;20523;-83
2022/04/16 15:32:38;;;;;;;2.03;1.13;;;;;;;14.83;19.39;101223.22;10302052;28;20058;-83
2022/04/16 15:37:40;;;;;;;2.33;1.17;;;;;;;14.91;19.74;101216.56;10304957;28;20108;-83
2022/04/16 15:42:42;;;;;;;1.88;1.08;;;;;;;14.94;20.73;101218.19;10301914;28;20086;-82
2022/04/16 15:47:44;;;;;;;4.22;1.15;;;;;;;15.11;21.22;101197.81;10300745;28;20121;-81
2022/04/16 15:52:46;;;;;;;2.20;1.10;;;;;;;14.95;20.67;101207.56;10303940;28;20078;-82
2022/04/16 15:57:49;;;;;;;2.35;1.23;;;;;;;14.87;20.69;101217.69;10287129;28;20137;-82
2022/04/16 16:02:53;;;;;;;3.53;1.10;;;;;;;14.98;20.39;101219.72;10302619;28;20054;-81
2022/04/16 16:07:55;;;;;;;3.17;1.45;;;;;;;15.12;20.23;101222.41;10302552;28;20771;-81
2022/04/16 16:12:57;;;;;;;3.20;1.20;;;;;;;14.95;20.63;101225.13;10304049;28;20063;-82
2022/04/16 16:17:59;;;;;;;3.00;1.17;;;;;;;14.70;20.08;101214.28;10302515;28;20085;-82
2022/04/16 16:23:02;;;;;;;1.85;1.20;;;;;;;14.51;20.77;101223.22;10302882;28;20051;-82
2022/04/16 16:28:05;;;;;;;2.50;1.20;;;;;;;14.57;20.36;101222.06;10310054;28;20496;-82
2022/04/16 16:33:09;;;;;;;2.97;1.30;;;;;;;14.39;19.66;101223.88;10313217;28;20428;-81
2022/04/16 16:38:11;;;;;;;2.03;1.33;;;;;;;14.32;20.34;101222.53;10310543;28;20114;-82
2022/04/16 16:43:16;;;;;;;2.53;1.23;;;;;;;14.31;20.29;101214.69;10309644;28;20578;-82
2022/04/16 16:48:18;;;;;;;4.18;1.58;;;;;;;14.38;20.53;101216.94;10309096;28;20112;-82
2022/04/16 16:53:20;;;;;;;3.20;1.33;;;;;;;14.71;20.26;101208.09;10310072;28;20077;-82
2022/04/16 16:58:24;;;;;;;2.17;1.10;;;;;;;14.84;19.67;101206.50;10290913;28;20050;-82
2022/04/16 17:08:46;;;;;;;4.35;1.27;;;;;;;14.15;20.49;101214.69;10307874;28;20082;-81
2022/04/16 17:13:49;;;;;;;3.00;1.33;;;;;;;14.03;20.97;101222.38;10308789;28;20051;-82
2022/04/16 17:18:51;;;;;;;2.50;1.27;;;;;;;13.95;20.92;101221.94;10305474;28;20178;-82
2022/04/16 17:23:56;;;;;;;4.40;1.38;;;;;;;13.89;21.47;101225.75;10305783;28;20080;-81
2022/04/16 17:28:59;;;;;;;2.85;1.30;;;;;;;13.82;21.30;101228.81;10308245;28;20918;-82
2022/04/16 17:34:02;;;;;;;3.05;1.40;;;;;;;13.68;21.33;101232.13;10301665;28;20058;-82
2022/04/16 17:39:05;;;;;;;4.55;1.20;;;;;;;13.42;21.64;101241.38;10306978;28;20692;-82
2022/04/16 17:44:06;;;;;;;3.25;1.50;;;;;;;13.53;22.31;101246.09;10294456;28;20078;-82
2022/04/16 17:49:14;;;;;;;3.60;1.38;;;;;;;13.40;23.69;101242.34;10308697;28;20058;-81
2022/04/16 17:54:15;;;;;;;3.28;1.20;;;;;;;13.14;22.36;101250.66;10299492;28;20058;-81
2022/04/16 17:59:18;;;;;;;3.03;1.40;;;;;;;12.98;23.01;101260.22;10310110;28;20056;-82
2022/04/16 18:04:20;;;;;;;3.65;1.33;;;;;;;12.73;23.42;101243.03;10308629;28;20435;-82
2022/04/16 18:09:23;;;;;;;2.10;1.30;;;;;;;12.56;23.98;101256.09;10310970;28;20128;-82
2022/04/16 18:14:24;;;;;;;4.20;1.50;;;;;;;12.30;23.98;101259.09;10311189;28;20064;-82
2022/04/16 18:19:27;;;;;;;2.17;1.23;;;;;;;12.06;25.21;101265.41;10312183;28;20149;-82
2022/04/16 18:24:29;;;;;;;2.88;1.50;;;;;;;11.90;24.71;101261.78;10315592;28;20135;-82
2022/04/16 18:29:33;;;;;;;3.63;1.63;;;;;;;11.79;24.92;101271.84;10306324;28;20129;-82
2022/04/16 18:34:39;;;;;;;3.83;1.50;;;;;;;11.60;24.72;101281.44;10307331;28;20337;-82
2022/04/16 18:40:28;;;;;;;4.35;1.70;;;;;;;11.45;26.13;101285.56;10305179;28;20134;-82
2022/04/16 18:45:31;;;;;;;2.97;1.42;;;;;;;11.32;26.79;101294.84;10300118;28;20423;-81
2022/04/16 18:50:34;;;;;;;4.80;2.10;;;;;;;11.20;25.95;101293.56;10305470;28;20042;-81
2022/04/16 18:55:36;;;;;;;3.30;1.90;;;;;;;11.09;26.34;101303.63;10304935;28;20835;-81
2022/04/16 19:11:22;;;;;;;4.18;2.00;;;;;;;10.67;28.69;101315.75;10301469;28;20436;-81
2022/04/16 19:16:46;;;;;;;4.17;2.20;;;;;;;10.52;29.44;101324.19;10303052;28;20136;-80
2022/04/16 19:21:48;;;;;;;4.80;2.20;;;;;;;10.41;29.16;101331.56;10303414;28;20061;-80
2022/04/16 19:26:51;;;;;;;14.05;8.70;;;;;;;10.25;29.54;101335.66;10302455;28;20064;-81
2022/04/16 19:31:53;;;;;;;25.13;18.00;;;;;;;10.04;29.92;101336.41;10285551;28;20109;-80
2022/04/16 19:36:55;;;;;;;20.33;12.57;;;;;;;9.83;30.68;101345.00;10303957;28;20051;-81
2022/04/16 19:41:57;;;;;;;7.32;3.90;;;;;;;9.74;31.06;101348.78;10303630;28;20061;-81
2022/04/16 19:47:03;;;;;;;5.05;3.05;;;;;;;9.68;31.46;101356.81;10303193;28;20420;-80
2022/04/16 19:52:15;;;;;;;5.80;2.88;;;;;;;9.55;31.83;101363.31;10304285;28;20113;-80
2022/04/16 19:57:18;;;;;;;6.63;3.13;;;;;;;9.42;32.57;101368.06;10303828;28;20058;-80
2022/04/16 20:02:26;;;;;;;4.60;2.70;;;;;;;9.31;32.73;101359.75;10307713;28;20463;-80
2022/04/16 20:07:30;;;;;;;6.20;2.15;;;;;;;9.15;33.29;101363.75;10312338;28;20056;-80
2022/04/16 20:12:32;;;;;;;4.70;2.20;;;;;;;9.05;33.33;101364.09;10311993;28;20427;-80
2022/04/16 20:17:34;;;;;;;3.72;2.20;;;;;;;8.93;33.82;101364.47;10313622;28;20051;-80
2022/04/16 20:22:39;;;;;;;9.13;2.20;;;;;;;8.80;34.11;101364.81;10313023;28;20047;-80
2022/04/16 20:27:41;;;;;;;6.20;2.10;;;;;;;8.73;34.67;101370.25;10311931;28;20050;-80
2022/04/16 20:32:43;;;;;;;5.70;1.90;;;;;;;8.61;34.92;101375.81;10313163;28;20059;-80
2022/04/16 20:37:45;;;;;;;4.25;2.25;;;;;;;8.59;34.96;101372.41;10309965;28;20058;-80
2022/04/16 20:48:09;;;;;;;4.80;2.00;;;;;;;8.33;35.09;101373.16;10310939;28;20147;-80
2022/04/16 20:53:17;;;;;;;4.50;2.30;;;;;;;8.26;35.55;101382.03;10312207;28;20066;-80
2022/04/16 20:58:20;;;;;;;5.28;2.45;;;;;;;8.09;35.93;101380.75;10311547;28;20053;-80
2022/04/16 21:03:21;;;;;;;3.22;2.00;;;;;;;8.16;35.85;101384.94;10294910;28;20108;-80
2022/04/16 21:08:23;;;;;;;4.53;2.33;;;;;;;8.05;35.67;101379.97;10293519;28;20054;-80
2022/04/16 21:13:29;;;;;;;5.50;2.38;;;;;;;7.89;36.00;101384.75;10311681;28;20108;-80
2022/04/16 21:18:31;;;;;;;5.85;2.65;;;;;;;7.75;36.47;101389.41;10311478;28;20068;-81
2022/04/16 21:23:32;;;;;;;6.15;2.50;;;;;;;7.84;36.60;101384.00;10310664;28;20128;-81
2022/04/16 21:28:34;;;;;;;4.10;2.60;;;;;;;7.86;36.41;101383.94;10311124;28;20054;-80
2022/04/16 21:33:38;;;;;;;4.45;2.65;;;;;;;7.83;36.66;101384.88;10312700;28;20050;-81
2022/04/16 21:38:39;;;;;;;8.35;3.88;;;;;;;7.64;37.81;101391.44;10310692;28;20054;-80
2022/04/16 21:43:41;;;;;;;5.75;3.47;;;;;;;7.52;37.73;101406.50;10312486;28;20655;-81
2022/04/16 21:48:43;;;;;;;5.97;3.45;;;;;;;7.49;38.09;101399.63;10311323;28;20058;-80
2022/04/16 21:53:45;;;;;;;6.07;2.63;;;;;;;7.40;37.69;101407.66;10311243;28;20412;-81
2022/04/16 21:58:47;;;;;;;4.78;2.60;;;;;;;7.44;38.05;101411.91;10310846;28;20050;-80
2022/04/16 22:03:49;;;;;;;6.10;2.55;;;;;;;7.31;37.68;101407.84;10311104;28;20097;-80
2022/04/16 22:08:51;;;;;;;7.20;2.70;;;;;;;7.33;38.19;101419.09;10309591;28;20062;-80
2022/04/16 22:13:53;;;;;;;6.30;2.88;;;;;;;7.23;37.78;101420.19;10310278;28;20054;-80
2022/04/16 22:18:56;;;;;;;4.93;2.97;;;;;;;6.95;38.05;101421.69;10310493;28;20058;-81
2022/04/16 22:23:58;;;;;;;4.68;3.60;;;;;;;6.88;38.85;101418.34;10308613;28;20050;-81
2022/04/16 22:29:01;;;;;;;6.50;3.75;;;;;;;6.79;38.81;101425.50;10310550;28;20077;-81
2022/04/16 22:34:03;;;;;;;5.25;3.30;;;;;;;6.84;39.08;101418.44;10309516;28;21279;-81
2022/04/16 22:44:40;;;;;;;7.03;3.50;;;;;;;6.47;39.72;101433.09;10305958;28;20065;-80
2022/04/16 22:49:42;;;;;;;8.25;4.30;;;;;;;6.43;39.39;101428.84;10306646;28;20138;-81
2022/04/16 22:54:45;;;;;;;6.20;3.83;;;;;;;6.42;39.64;101422.78;10300117;28;20198;-81
2022/04/16 22:59:47;;;;;;;8.45;3.72;;;;;;;6.29;39.90;101422.13;10307273;28;20050;-81
2022/04/16 23:04:49;;;;;;;7.05;3.85;;;;;;;6.21;40.15;101420.53;10307007;28;20108;-81
2022/04/16 23:09:52;;;;;;;8.55;4.05;;;;;;;6.03;40.56;101416.53;10308485;28;20523;-82
2022/04/16 23:20:15;;;;;;;7.77;3.97;;;;;;;5.81;41.23;101403.94;10308088;28;20046;-81
2022/04/16 23:25:18;;;;;;;8.45;3.65;;;;;;;5.74;41.60;101410.97;10309415;28;20050;-82
2022/04/16 23:30:20;;;;;;;6.10;3.38;;;;;;;5.78;41.61;101402.25;10310434;28;20121;-81
2022/04/16 23:35:22;;;;;;;6.68;3.85;;;;;;;5.78;42.06;101404.84;10314409;28;20058;-82
2022/04/16 23:40:24;;;;;;;6.10;3.55;;;;;;;5.72;41.93;101388.50;10301276;28;20051;-81
2022/04/16 23:50:46;;;;;;;5.43;3.30;;;;;;;5.52;42.16;101386.25;10316349;28;20077;-81
2022/04/16 23:55:48;;;;;;;5.82;3.30;;;;;;;5.43;42.16;101381.22;10317599;28;20058;-81
